Latest Coastal Weather Observations for Cape Byron

IDN60701

Issued at 3:42 pm EDT Sunday 1 March 2015 (issued every 10 minutes, with the page automatically refreshed every 10 minutes)

About coastal observations | Map of coastal stations | Coastal observations for NSW | Marine services | Other Formats
Station Details ID: 058216 Name: CAPE BYRON AWS Lat: -28.64 Lon: 153.64 Height: 95.0 m
Data from the previous 72 hours. | See also: Recent months at Cape Byron
Date/Time
EDT
Temp

°C
Wind Pressure Rain
since 9am
mm
Weather Cloud Vis
km
Sea
Height
m
Swell
Dir
 
Speed
knots
Gust
knots
hPa Trend Height
m
Period
s
Dir
01/03:30pm 27.7 NE 15 19 1008.4 - 0.0 - - - - - - -
01/03:00pm 27.7 NE 16 19 1008.8 - 0.0 - - - - - - -
01/02:30pm 28.2 NE 16 18 1009.1 - 0.0 - - - - - - -
01/02:00pm 28.2 NE 15 17 1009.4 - 0.0 - - - - - - -
01/01:30pm 28.8 NE 14 17 1009.7 - 0.0 - - - - - - -
01/01:00pm 28.4 NE 15 18 1009.9 - 0.0 - - - - - - -
01/12:30pm 28.7 NE 12 14 1010.3 - 0.0 - - - - - - -
01/12:00pm 28.5 NE 9 12 1010.9 - 0.0 - - - - - - -
01/11:30am 27.9 NNE 7 10 1011.3 - 0.0 - - - - - - -
01/11:00am 27.6 NNE 6 9 1011.3 - 0.0 - - - - - - -
01/10:30am 27.1 NNE 5 7 1011.4 - 0.0 - - - - - - -
01/10:00am 26.6 NNE 4 5 1011.4 - 0.0 - - - - - - -
01/09:30am 25.9 N 4 5 1011.4 - 0.0 - - - - - - -
01/09:00am 24.6 NNE 3 5 1011.3 - 0.0 - - - - - - -
01/08:30am 24.0 NNW 4 6 1011.0 - 0.0 - - - - - - -
01/08:00am 22.7 NNW 3 5 1010.8 - 0.0 - - - - - - -
01/07:30am 21.8 NW 5 6 1010.7 - 0.0 - - - - - - -
01/07:00am 21.8 WNW 6 7 1010.5 - 0.0 - - - - - - -
01/06:30am 21.7 NW 6 7 1010.1 - 0.0 - - - - - - -
01/06:00am 22.0 NW 5 7 1010.0 - 0.0 - - - - - - -
01/05:30am 22.0 NW 5 7 1009.8 - 0.0 - - - - - - -
01/05:00am 22.2 NW 5 7 1009.8 - 0.0 - - - - - - -
01/04:30am 23.2 NW 4 6 1009.9 - 0.0 - - - - - - -
01/04:00am 23.3 N 6 8 1009.8 - 0.0 - - - - - - -
01/03:30am 23.5 N 4 6 1010.0 - 0.0 - - - - - - -
01/03:00am 24.3 NNE 9 14 1010.0 - 0.0 - - - - - - -
01/02:30am 24.2 NNE 9 16 1010.2 - 0.0 - - - - - - -
01/02:00am 24.1 N 7 10 1010.6 - 0.0 - - - - - - -
01/01:30am 24.4 NNE 9 14 1011.1 - 0.0 - - - - - - -
01/01:00am 24.4 NNE 10 14 1011.2 - 0.0 - - - - - - -
01/12:30am 24.4 NNE 11 15 1011.5 - 0.0 - - - - - - -
01/12:00am 24.5 NNE 10 15 1011.6 - 0.0 - - - - - - -
 
Date/Time
EDT
Temp

°C
Wind Pressure Rain
since 9am
mm
Weather Cloud Vis
km
Sea
Height
m
Swell
Dir
 
Speed
knots
Gust
knots
hPa Trend Height
m
Period
s
Dir
28/11:30pm 24.4 NE 11 18 1011.5 - 0.0 - - - - - - -
28/11:00pm 24.4 NE 10 16 1011.5 - 0.0 - - - - - - -
28/10:30pm 24.5 NE 9 13 1011.7 - 0.0 - - - - - - -
28/10:00pm 24.6 NE 10 15 1011.7 - 0.0 - - - - - - -
28/09:30pm 24.6 NNE 11 17 1011.6 - 0.0 - - - - - - -
28/09:00pm 24.6 NNE 10 13 1011.2 - 0.0 - - - - - - -
28/08:30pm 24.7 NE 10 13 1010.9 - 0.0 - - - - - - -
28/08:00pm 24.7 NE 14 17 1010.7 - 0.0 - - - - - - -
28/07:30pm 24.8 NE 16 19 1010.2 - 0.0 - - - - - - -
28/07:00pm 25.0 NE 14 17 1010.0 - 0.0 - - - - - - -
28/06:30pm 25.6 NE 13 17 1010.0 - 0.0 - - - - - - -
28/06:00pm 26.0 NE 16 21 1009.6 - 0.0 - - - - - - -
28/05:30pm 27.2 NE 15 19 1009.6 - 0.0 - - - - - - -
28/05:00pm 28.0 NE 13 16 1009.7 - 0.0 - - - - - - -
28/04:30pm 29.2 ENE 11 15 1009.7 - 0.0 - - - - - - -
28/04:00pm 29.2 ENE 10 13 1009.8 - 0.0 - - - - - - -
28/03:30pm 29.6 ENE 9 12 1009.8 - 0.0 - - - - - - -
28/03:00pm 29.2 ENE 11 14 1010.0 - 0.0 - - - - - - -
28/02:30pm 29.5 ENE 11 14 1010.2 - 0.0 - - - - - - -
28/02:00pm 29.5 ENE 10 13 1010.5 - 0.0 - - - - - - -
28/01:30pm 29.2 ENE 10 14 1010.9 - 0.0 - - - - - - -
28/01:00pm 29.0 ENE 10 14 1011.1 - 0.0 - - - - - - -
28/12:30pm 29.1 ENE 8 11 1011.3 - 0.0 - - - - - - -
28/12:00pm 28.5 ENE 8 10 1011.5 - 0.0 - - - - - - -
28/11:30am 28.4 ENE 7 9 1011.7 - 0.0 - - - - - - -
28/11:00am 28.2 NE 7 9 1011.7 - 0.0 - - - - - - -
28/10:30am 26.6 NE 5 7 1011.9 - 0.0 - - - - - - -
28/10:00am 26.1 NNE 4 5 1011.8 - 0.0 - - - - - - -
28/09:30am 25.5 N 3 4 1011.7 - 0.0 - - - - - - -
28/09:00am 25.0 NNW 4 5 1011.4 - 0.0 - - - - - - -
28/08:30am 24.2 NNW 3 4 1011.2 - 0.0 - - - - - - -
28/08:00am 22.5 NW 3 4 1010.9 - 0.0 - - - - - - -
28/07:30am 21.4 WNW 5 7 1010.7 - 0.0 - - - - - - -
28/07:00am 21.2 WNW 6 8 1010.3 - 0.0 - - - - - - -
28/06:30am 21.3 NW 6 7 1010.0 - 0.0 - - - - - - -
28/06:00am 21.2 NW 5 7 1009.8 - 0.0 - - - - - - -
28/05:30am 21.4 NW 4 7 1009.8 - 0.0 - - - - - - -
28/05:00am 22.1 NW 3 6 1009.7 - 0.0 - - - - - - -
28/04:30am 22.1 N 5 8 1009.5 - 0.0 - - - - - - -
28/04:00am 22.2 N 6 11 1009.7 - 0.0 - - - - - - -
28/03:30am 22.4 NNW 4 6 1010.0 - 0.0 - - - - - - -
28/03:00am 22.2 NW 5 7 1010.0 - 0.0 - - - - - - -
28/02:30am 22.4 NW 5 6 1010.2 - 0.0 - - - - - - -
28/02:00am 23.0 W 7 10 1010.2 - 0.0 - - - - - - -
28/01:30am 23.8 NE 13 15 1010.3 - 0.0 - - - - - - -
28/01:00am 24.0 NE 14 16 1010.5 - 0.0 - - - - - - -
28/12:30am 23.7 ENE 15 18 1010.3 - 0.0 - - - - - - -
28/12:00am 23.9 NE 16 19 1010.4 - 0.0 - - - - - - -
 
Date/Time
EDT
Temp

°C
Wind Pressure Rain
since 9am
mm
Weather Cloud Vis
km
Sea
Height
m
Swell
Dir
 
Speed
knots
Gust
knots
hPa Trend Height
m
Period
s
Dir
27/11:30pm 23.8 ENE 17 20 1010.2 - 0.0 - - - - - - -
27/11:00pm 24.2 ENE 15 19 1010.2 - 0.0 - - - - - - -
27/10:30pm 24.3 ENE 18 21 1010.1 - 0.0 - - - - - - -
27/10:00pm 24.4 ENE 17 21 1010.2 - 0.0 - - - - - - -
27/09:30pm 24.6 NE 17 19 1010.0 - 0.0 - - - - - - -
27/09:00pm 24.6 NE 16 19 1009.7 - 0.0 - - - - - - -
27/08:30pm 24.7 NE 13 17 1009.4 - 0.0 - - - - - - -
27/08:00pm 24.7 NE 14 17 1009.2 - 0.0 - - - - - - -
27/07:30pm 24.7 NE 15 17 1008.8 - 0.0 - - - - - - -
27/07:00pm 24.8 NE 16 19 1008.5 - 0.0 - - - - - - -
27/06:30pm 25.1 NE 16 18 1008.2 - 0.0 - - - - - - -
27/06:00pm 25.4 NE 15 17 1008.0 - 0.0 - - - - - - -
27/05:30pm 25.5 NE 13 16 1007.7 - 0.0 - - - - - - -
27/05:00pm 25.6 NE 13 16 1007.4 - 0.0 - - - - - - -
27/04:30pm 25.8 NE 10 15 1007.4 - 0.0 - - - - - - -
27/04:00pm 26.1 NE 11 15 1007.4 - 0.0 - - - - - - -
27/03:30pm 27.2 NE 14 18 1007.4 - 0.0 - - - - - - -
27/03:00pm 27.8 NE 15 18 1007.6 - 0.0 - - - - - - -
27/02:30pm 27.7 NE 15 18 1007.7 - 0.0 - - - - - - -
27/02:00pm 28.1 NE 15 17 1007.9 - 0.0 - - - - - - -
27/01:30pm 28.0 NE 11 15 1008.4 - 0.0 - - - - - - -
27/01:00pm 27.9 NE 11 16 1008.5 - 0.0 - - - - - - -
27/12:30pm 27.6 NNE 9 13 1008.7 - 0.0 - - - - - - -
27/12:00pm 27.9 N 8 11 1009.3 - 0.0 - - - - - - -
27/11:30am 27.3 N 7 11 1009.6 - 0.0 - - - - - - -
27/11:00am 26.9 N 7 10 1009.7 - 0.0 - - - - - - -
27/10:30am 26.4 N 6 8 1009.8 - 0.0 - - - - - - -
27/10:00am 25.5 NNE 6 10 1009.6 - 0.0 - - - - - - -
27/09:30am 24.5 N 10 15 1009.1 - 0.0 - - - - - - -
27/09:00am 24.6 N 12 16 1008.6 - 0.0 - - - - - - -
27/08:30am 24.0 N 11 16 1008.5 - 0.0 - - - - - - -
27/08:00am 23.3 NNE 10 15 1008.0 - 0.0 - - - - - - -
27/07:30am 22.8 N 9 14 1008.1 - 0.0 - - - - - - -
27/07:00am 21.9 NW 8 11 1008.7 - 0.0 - - - - - - -
27/06:30am 22.3 NW 6 9 1009.1 - 0.0 - - - - - - -
27/06:00am 22.6 W 4 5 1008.4 - 0.0 - - - - - - -
27/05:30am 22.6 NW 3 5 1008.3 - 0.0 - - - - - - -
27/05:00am 22.5 WNW 5 8 1008.3 - 0.0 - - - - - - -
27/04:30am 22.7 WNW 5 8 1008.1 - 0.0 - - - - - - -
27/04:00am 23.5 NW 3 5 1007.5 - 0.0 - - - - - - -
27/03:30am 24.0 NE 8 12 1007.7 - 0.0 - - - - - - -
27/03:00am 24.1 NNE 7 9 1008.2 - 0.0 - - - - - - -
27/02:30am 24.1 NE 9 12 1008.0 - 0.0 - - - - - - -
27/02:00am 24.0 NE 10 13 1008.3 - 0.0 - - - - - - -
27/01:30am 23.9 NE 11 14 1008.5 - 0.0 - - - - - - -
27/01:00am 24.0 NE 11 15 1008.7 - 0.0 - - - - - - -
27/12:30am 24.0 NE 11 15 1008.9 - 0.0 - - - - - - -
27/12:00am 24.0 ENE 11 15 1009.1 - 0.0 - - - - - - -
 
Date/Time
EDT
Temp

°C
Wind Pressure Rain
since 9am
mm
Weather Cloud Vis
km
Sea
Height
m
Swell
Dir
 
Speed
knots
Gust
knots
hPa Trend Height
m
Period
s
Dir
26/11:30pm 24.1 NE 13 16 1009.2 - 0.0 - - - - - - -
26/11:00pm 23.9 ENE 11 14 1009.4 - 0.0 - - - - - - -
26/10:30pm 23.7 ENE 13 16 1009.2 - 0.0 - - - - - - -
26/10:00pm 23.8 ENE 9 11 1009.6 - 0.0 - - - - - - -
26/09:30pm 23.9 NE 11 16 1009.1 - 0.0 - - - - - - -
26/09:00pm 24.0 NE 12 15 1008.9 - 0.0 - - - - - - -
26/08:30pm 23.8 ENE 9 12 1008.7 - 0.0 - - - - - - -
26/08:00pm 24.1 NE 8 9 1008.6 - 0.0 - - - - - - -
26/07:30pm 23.9 ENE 8 12 1008.2 - 0.0 - - - - - - -
26/07:00pm 23.9 ENE 7 11 1008.0 - 0.0 - - - - - - -
26/06:30pm 24.2 E 6 9 1008.0 - 0.0 - - - - - - -
26/06:00pm 24.7 E 6 8 1008.1 - 0.0 - - - - - - -
26/05:30pm 25.0 E 5 8 1008.0 - 0.0 - - - - - - -
26/05:00pm 25.6 E 6 9 1008.0 - 0.0 - - - - - - -
26/04:30pm 26.8 E 7 10 1007.9 - 0.0 - - - - - - -
26/04:00pm 27.1 E 7 10 1008.1 - 0.0 - - - - - - -

Other Formats:

Comma delimited format used in spreadsheet applications
http://www.bom.gov.au/fwo/IDN60701/IDN60701.94599.axf

JavaScript Object Notation format (JSON) in row-major order
http://www.bom.gov.au/fwo/IDN60701/IDN60701.94599.json